sensor_id;sensor_type;location;lat;lon;timestamp;P1;durP1;ratioP1;P2;durP2;ratioP2
29242;SDS011;21110;48.036;15.780;2023-04-03T00:00:29;3.55;;;2.35;;
29242;SDS011;21110;48.036;15.780;2023-04-03T00:02:56;3.38;;;2.22;;
29242;SDS011;21110;48.036;15.780;2023-04-03T00:05:22;2.78;;;2.58;;
29242;SDS011;21110;48.036;15.780;2023-04-03T00:07:47;2.97;;;2.25;;
29242;SDS011;21110;48.036;15.780;2023-04-03T00:10:15;2.92;;;2.40;;
29242;SDS011;21110;48.036;15.780;2023-04-03T00:12:40;2.42;;;2.22;;
29242;SDS011;21110;48.036;15.780;2023-04-03T00:15:06;2.50;;;2.30;;
29242;SDS011;21110;48.036;15.780;2023-04-03T00:17:32;2.70;;;2.50;;
29242;SDS011;21110;48.036;15.780;2023-04-03T00:19:58;2.60;;;2.40;;
29242;SDS011;21110;48.036;15.780;2023-04-03T00:22:24;2.58;;;2.38;;
29242;SDS011;21110;48.036;15.780;2023-04-03T00:24:51;3.60;;;2.70;;
29242;SDS011;21110;48.036;15.780;2023-04-03T00:27:17;3.00;;;2.47;;
29242;SDS011;21110;48.036;15.780;2023-04-03T00:29:42;2.90;;;2.60;;
29242;SDS011;21110;48.036;15.780;2023-04-03T00:32:08;2.50;;;2.30;;
29242;SDS011;21110;48.036;15.780;2023-04-03T00:34:34;3.20;;;2.30;;
29242;SDS011;21110;48.036;15.780;2023-04-03T00:36:59;2.70;;;2.50;;
29242;SDS011;21110;48.036;15.780;2023-04-03T00:39:25;2.80;;;2.60;;
29242;SDS011;21110;48.036;15.780;2023-04-03T00:41:51;2.63;;;2.42;;
29242;SDS011;21110;48.036;15.780;2023-04-03T00:44:20;2.70;;;2.50;;
29242;SDS011;21110;48.036;15.780;2023-04-03T00:46:47;2.80;;;2.60;;
29242;SDS011;21110;48.036;15.780;2023-04-03T00:49:12;3.70;;;2.63;;
29242;SDS011;21110;48.036;15.780;2023-04-03T00:51:38;2.78;;;2.47;;
29242;SDS011;21110;48.036;15.780;2023-04-03T00:54:05;2.55;;;2.35;;
29242;SDS011;21110;48.036;15.780;2023-04-03T00:56:32;2.60;;;2.40;;
29242;SDS011;21110;48.036;15.780;2023-04-03T00:58:59;3.03;;;2.45;;
29242;SDS011;21110;48.036;15.780;2023-04-03T01:01:29;3.22;;;2.53;;
29242;SDS011;21110;48.036;15.780;2023-04-03T01:03:55;2.58;;;2.38;;
29242;SDS011;21110;48.036;15.780;2023-04-03T01:06:24;2.50;;;2.30;;
29242;SDS011;21110;48.036;15.780;2023-04-03T01:08:53;2.70;;;2.50;;
29242;SDS011;21110;48.036;15.780;2023-04-03T01:11:20;3.03;;;2.45;;
29242;SDS011;21110;48.036;15.780;2023-04-03T01:13:46;2.55;;;2.35;;
29242;SDS011;21110;48.036;15.780;2023-04-03T01:16:12;2.63;;;2.40;;
29242;SDS011;21110;48.036;15.780;2023-04-03T01:18:39;5.40;;;2.53;;
29242;SDS011;21110;48.036;15.780;2023-04-03T01:26:24;4.03;;;2.58;;
29242;SDS011;21110;48.036;15.780;2023-04-03T01:28:50;6.97;;;2.45;;
29242;SDS011;21110;48.036;15.780;2023-04-03T01:31:26;2.97;;;2.60;;
29242;SDS011;21110;48.036;15.780;2023-04-03T01:33:52;2.83;;;2.42;;
29242;SDS011;21110;48.036;15.780;2023-04-03T01:36:23;3.92;;;2.40;;
29242;SDS011;21110;48.036;15.780;2023-04-03T01:38:51;3.65;;;2.30;;
29242;SDS011;21110;48.036;15.780;2023-04-03T01:41:18;2.60;;;2.40;;
29242;SDS011;21110;48.036;15.780;2023-04-03T01:43:43;3.63;;;2.58;;
29242;SDS011;21110;48.036;15.780;2023-04-03T01:46:09;3.72;;;2.25;;
29242;SDS011;21110;48.036;15.780;2023-04-03T01:48:35;2.80;;;2.60;;
29242;SDS011;21110;48.036;15.780;2023-04-03T01:51:00;2.80;;;2.60;;
29242;SDS011;21110;48.036;15.780;2023-04-03T01:53:26;2.80;;;2.30;;
29242;SDS011;21110;48.036;15.780;2023-04-03T01:55:52;3.05;;;2.70;;
29242;SDS011;21110;48.036;15.780;2023-04-03T01:58:17;2.78;;;2.50;;
29242;SDS011;21110;48.036;15.780;2023-04-03T02:00:43;4.97;;;2.40;;
29242;SDS011;21110;48.036;15.780;2023-04-03T02:03:08;2.40;;;2.20;;
29242;SDS011;21110;48.036;15.780;2023-04-03T02:05:34;4.57;;;2.70;;
29242;SDS011;21110;48.036;15.780;2023-04-03T02:08:00;12.35;;;2.88;;
29242;SDS011;21110;48.036;15.780;2023-04-03T02:10:26;8.65;;;2.72;;
29242;SDS011;21110;48.036;15.780;2023-04-03T02:12:52;7.47;;;2.50;;
29242;SDS011;21110;48.036;15.780;2023-04-03T02:15:17;3.78;;;2.25;;
29242;SDS011;21110;48.036;15.780;2023-04-03T02:17:43;12.88;;;2.70;;
29242;SDS011;21110;48.036;15.780;2023-04-03T02:20:09;6.47;;;2.63;;
29242;SDS011;21110;48.036;15.780;2023-04-03T02:22:35;3.35;;;2.40;;
29242;SDS011;21110;48.036;15.780;2023-04-03T02:25:00;2.72;;;2.50;;
29242;SDS011;21110;48.036;15.780;2023-04-03T02:27:26;7.75;;;2.53;;
29242;SDS011;21110;48.036;15.780;2023-04-03T02:29:52;6.18;;;2.60;;
29242;SDS011;21110;48.036;15.780;2023-04-03T02:32:18;2.80;;;2.40;;
29242;SDS011;21110;48.036;15.780;2023-04-03T02:34:43;13.00;;;2.83;;
29242;SDS011;21110;48.036;15.780;2023-04-03T02:37:09;6.80;;;2.80;;
29242;SDS011;21110;48.036;15.780;2023-04-03T02:39:35;6.18;;;2.78;;
29242;SDS011;21110;48.036;15.780;2023-04-03T02:42:00;7.20;;;2.80;;
29242;SDS011;21110;48.036;15.780;2023-04-03T02:44:26;9.48;;;2.67;;
29242;SDS011;21110;48.036;15.780;2023-04-03T02:46:52;8.00;;;2.63;;
29242;SDS011;21110;48.036;15.780;2023-04-03T02:49:17;9.57;;;3.03;;
29242;SDS011;21110;48.036;15.780;2023-04-03T02:51:43;6.38;;;2.40;;
29242;SDS011;21110;48.036;15.780;2023-04-03T02:54:09;3.80;;;2.40;;
29242;SDS011;21110;48.036;15.780;2023-04-03T02:56:35;4.22;;;2.40;;
29242;SDS011;21110;48.036;15.780;2023-04-03T02:59:00;3.80;;;2.58;;
29242;SDS011;21110;48.036;15.780;2023-04-03T03:01:26;4.60;;;2.60;;
29242;SDS011;21110;48.036;15.780;2023-04-03T03:03:56;3.30;;;2.65;;
29242;SDS011;21110;48.036;15.780;2023-04-03T03:06:22;5.03;;;2.67;;
29242;SDS011;21110;48.036;15.780;2023-04-03T03:08:48;5.05;;;2.58;;
29242;SDS011;21110;48.036;15.780;2023-04-03T03:11:13;3.67;;;2.78;;
29242;SDS011;21110;48.036;15.780;2023-04-03T03:13:39;3.58;;;2.60;;
29242;SDS011;21110;48.036;15.780;2023-04-03T03:16:05;3.63;;;2.70;;
29242;SDS011;21110;48.036;15.780;2023-04-03T03:18:31;4.13;;;2.90;;
29242;SDS011;21110;48.036;15.780;2023-04-03T03:20:58;3.90;;;2.83;;
29242;SDS011;21110;48.036;15.780;2023-04-03T03:23:25;3.42;;;2.45;;
29242;SDS011;21110;48.036;15.780;2023-04-03T03:25:59;5.20;;;2.80;;
29242;SDS011;21110;48.036;15.780;2023-04-03T03:28:30;3.05;;;2.67;;
29242;SDS011;21110;48.036;15.780;2023-04-03T03:30:56;3.50;;;2.70;;
29242;SDS011;21110;48.036;15.780;2023-04-03T03:33:22;3.10;;;2.78;;
29242;SDS011;21110;48.036;15.780;2023-04-03T03:35:48;2.72;;;2.53;;
29242;SDS011;21110;48.036;15.780;2023-04-03T03:38:14;2.88;;;2.65;;
29242;SDS011;21110;48.036;15.780;2023-04-03T03:40:40;2.83;;;2.63;;
29242;SDS011;21110;48.036;15.780;2023-04-03T03:43:06;3.22;;;2.90;;
29242;SDS011;21110;48.036;15.780;2023-04-03T03:45:31;13.73;;;3.08;;
29242;SDS011;21110;48.036;15.780;2023-04-03T03:47:57;17.25;;;3.10;;
29242;SDS011;21110;48.036;15.780;2023-04-03T03:50:22;7.80;;;3.33;;
29242;SDS011;21110;48.036;15.780;2023-04-03T03:52:48;10.18;;;3.10;;
29242;SDS011;21110;48.036;15.780;2023-04-03T03:55:14;5.47;;;2.65;;
29242;SDS011;21110;48.036;15.780;2023-04-03T03:57:39;6.10;;;3.20;;
29242;SDS011;21110;48.036;15.780;2023-04-03T04:00:05;6.93;;;2.90;;
29242;SDS011;21110;48.036;15.780;2023-04-03T04:02:32;4.95;;;3.00;;
29242;SDS011;21110;48.036;15.780;2023-04-03T04:04:57;3.50;;;3.13;;
29242;SDS011;21110;48.036;15.780;2023-04-03T04:07:23;7.00;;;3.05;;
29242;SDS011;21110;48.036;15.780;2023-04-03T04:09:49;11.18;;;3.05;;
29242;SDS011;21110;48.036;15.780;2023-04-03T04:12:14;5.75;;;2.90;;
29242;SDS011;21110;48.036;15.780;2023-04-03T04:14:40;10.70;;;2.80;;
29242;SDS011;21110;48.036;15.780;2023-04-03T04:17:06;3.67;;;2.53;;
29242;SDS011;21110;48.036;15.780;2023-04-03T04:19:32;4.40;;;2.63;;
29242;SDS011;21110;48.036;15.780;2023-04-03T04:21:58;3.80;;;2.60;;
29242;SDS011;21110;48.036;15.780;2023-04-03T04:24:23;3.75;;;2.47;;
29242;SDS011;21110;48.036;15.780;2023-04-03T04:26:49;2.65;;;2.45;;
29242;SDS011;21110;48.036;15.780;2023-04-03T04:29:15;12.60;;;2.50;;
29242;SDS011;21110;48.036;15.780;2023-04-03T04:31:41;41.53;;;3.55;;
29242;SDS011;21110;48.036;15.780;2023-04-03T04:34:07;29.33;;;3.20;;
29242;SDS011;21110;48.036;15.780;2023-04-03T04:36:32;31.10;;;3.25;;
29242;SDS011;21110;48.036;15.780;2023-04-03T04:38:58;20.58;;;3.10;;
29242;SDS011;21110;48.036;15.780;2023-04-03T04:41:24;17.92;;;2.90;;
29242;SDS011;21110;48.036;15.780;2023-04-03T04:43:50;17.30;;;2.95;;
29242;SDS011;21110;48.036;15.780;2023-04-03T04:46:16;19.67;;;3.20;;
29242;SDS011;21110;48.036;15.780;2023-04-03T04:48:42;18.67;;;3.00;;
29242;SDS011;21110;48.036;15.780;2023-04-03T04:51:07;13.07;;;3.00;;
29242;SDS011;21110;48.036;15.780;2023-04-03T04:53:33;14.52;;;2.75;;
29242;SDS011;21110;48.036;15.780;2023-04-03T04:55:59;12.85;;;3.10;;
29242;SDS011;21110;48.036;15.780;2023-04-03T04:58:24;18.13;;;3.10;;
29242;SDS011;21110;48.036;15.780;2023-04-03T05:01:00;14.65;;;3.00;;
29242;SDS011;21110;48.036;15.780;2023-04-03T05:03:27;10.70;;;2.85;;
29242;SDS011;21110;48.036;15.780;2023-04-03T05:05:53;18.85;;;2.80;;
29242;SDS011;21110;48.036;15.780;2023-04-03T05:08:19;6.60;;;2.60;;
29242;SDS011;21110;48.036;15.780;2023-04-03T05:10:45;8.80;;;2.67;;
29242;SDS011;21110;48.036;15.780;2023-04-03T05:13:11;9.32;;;2.60;;
29242;SDS011;21110;48.036;15.780;2023-04-03T05:15:37;11.35;;;2.78;;
29242;SDS011;21110;48.036;15.780;2023-04-03T05:18:03;6.05;;;2.50;;
29242;SDS011;21110;48.036;15.780;2023-04-03T05:20:30;6.90;;;2.60;;
29242;SDS011;21110;48.036;15.780;2023-04-03T05:22:56;7.95;;;2.72;;
29242;SDS011;21110;48.036;15.780;2023-04-03T05:25:22;5.97;;;2.42;;
29242;SDS011;21110;48.036;15.780;2023-04-03T05:27:48;5.40;;;2.40;;
29242;SDS011;21110;48.036;15.780;2023-04-03T05:30:14;7.75;;;2.65;;
29242;SDS011;21110;48.036;15.780;2023-04-03T05:32:39;7.07;;;2.85;;
29242;SDS011;21110;48.036;15.780;2023-04-03T05:35:06;7.13;;;2.40;;
29242;SDS011;21110;48.036;15.780;2023-04-03T05:37:32;8.48;;;2.38;;
29242;SDS011;21110;48.036;15.780;2023-04-03T05:39:58;5.95;;;2.78;;
29242;SDS011;21110;48.036;15.780;2023-04-03T05:42:24;6.60;;;2.50;;
29242;SDS011;21110;48.036;15.780;2023-04-03T05:44:53;6.07;;;2.33;;
29242;SDS011;21110;48.036;15.780;2023-04-03T05:47:18;3.90;;;2.45;;
29242;SDS011;21110;48.036;15.780;2023-04-03T05:49:44;7.60;;;2.30;;
29242;SDS011;21110;48.036;15.780;2023-04-03T05:52:29;7.53;;;2.70;;
29242;SDS011;21110;48.036;15.780;2023-04-03T05:55:01;5.50;;;2.20;;
29242;SDS011;21110;48.036;15.780;2023-04-03T05:57:26;5.60;;;2.50;;
29242;SDS011;21110;48.036;15.780;2023-04-03T05:59:52;5.43;;;2.60;;
29242;SDS011;21110;48.036;15.780;2023-04-03T06:02:19;2.63;;;2.15;;
29242;SDS011;21110;48.036;15.780;2023-04-03T06:04:46;3.42;;;2.20;;
29242;SDS011;21110;48.036;15.780;2023-04-03T06:07:22;2.30;;;2.10;;
29242;SDS011;21110;48.036;15.780;2023-04-03T06:09:52;3.30;;;2.30;;
29242;SDS011;21110;48.036;15.780;2023-04-03T06:12:18;3.72;;;2.30;;
29242;SDS011;21110;48.036;15.780;2023-04-03T06:14:44;2.33;;;2.10;;
29242;SDS011;21110;48.036;15.780;2023-04-03T06:17:10;2.60;;;2.22;;
29242;SDS011;21110;48.036;15.780;2023-04-03T06:19:37;3.53;;;2.20;;
29242;SDS011;21110;48.036;15.780;2023-04-03T06:22:03;2.47;;;2.20;;
29242;SDS011;21110;48.036;15.780;2023-04-03T06:24:29;4.57;;;2.28;;
29242;SDS011;21110;48.036;15.780;2023-04-03T06:26:55;4.03;;;2.30;;
29242;SDS011;21110;48.036;15.780;2023-04-03T06:29:21;4.25;;;1.90;;
29242;SDS011;21110;48.036;15.780;2023-04-03T06:31:47;2.35;;;1.92;;
29242;SDS011;21110;48.036;15.780;2023-04-03T06:34:13;3.13;;;2.05;;
29242;SDS011;21110;48.036;15.780;2023-04-03T06:36:39;2.67;;;2.20;;
29242;SDS011;21110;48.036;15.780;2023-04-03T06:39:05;2.40;;;1.92;;
29242;SDS011;21110;48.036;15.780;2023-04-03T06:41:31;2.50;;;2.05;;
29242;SDS011;21110;48.036;15.780;2023-04-03T06:43:59;2.10;;;1.90;;
29242;SDS011;21110;48.036;15.780;2023-04-03T06:46:25;3.33;;;2.05;;
29242;SDS011;21110;48.036;15.780;2023-04-03T06:48:52;4.53;;;1.88;;
29242;SDS011;21110;48.036;15.780;2023-04-03T06:51:18;1.85;;;1.75;;
29242;SDS011;21110;48.036;15.780;2023-04-03T06:53:45;1.83;;;1.70;;
29242;SDS011;21110;48.036;15.780;2023-04-03T06:56:11;1.83;;;1.65;;
29242;SDS011;21110;48.036;15.780;2023-04-03T06:58:36;1.95;;;1.85;;
29242;SDS011;21110;48.036;15.780;2023-04-03T07:01:02;1.95;;;1.70;;
29242;SDS011;21110;48.036;15.780;2023-04-03T07:03:28;2.53;;;1.80;;
29242;SDS011;21110;48.036;15.780;2023-04-03T07:05:54;2.28;;;1.80;;
29242;SDS011;21110;48.036;15.780;2023-04-03T07:08:20;1.77;;;1.67;;
29242;SDS011;21110;48.036;15.780;2023-04-03T07:10:47;2.05;;;1.70;;
29242;SDS011;21110;48.036;15.780;2023-04-03T07:13:13;2.28;;;1.83;;
29242;SDS011;21110;48.036;15.780;2023-04-03T07:15:39;2.80;;;1.70;;
29242;SDS011;21110;48.036;15.780;2023-04-03T07:18:05;1.90;;;1.70;;
29242;SDS011;21110;48.036;15.780;2023-04-03T07:20:31;1.80;;;1.70;;
29242;SDS011;21110;48.036;15.780;2023-04-03T07:22:56;1.70;;;1.60;;
29242;SDS011;21110;48.036;15.780;2023-04-03T07:25:27;2.13;;;1.92;;
29242;SDS011;21110;48.036;15.780;2023-04-03T07:27:53;2.22;;;1.70;;
29242;SDS011;21110;48.036;15.780;2023-04-03T07:30:19;1.98;;;1.83;;
29242;SDS011;21110;48.036;15.780;2023-04-03T07:32:45;3.17;;;2.00;;
29242;SDS011;21110;48.036;15.780;2023-04-03T07:35:11;1.83;;;1.70;;
29242;SDS011;21110;48.036;15.780;2023-04-03T07:37:37;2.00;;;1.90;;
29242;SDS011;21110;48.036;15.780;2023-04-03T07:40:02;2.65;;;2.03;;
29242;SDS011;21110;48.036;15.780;2023-04-03T07:42:29;2.20;;;1.98;;
29242;SDS011;21110;48.036;15.780;2023-04-03T07:44:55;2.20;;;1.95;;
29242;SDS011;21110;48.036;15.780;2023-04-03T07:47:21;3.58;;;1.95;;
29242;SDS011;21110;48.036;15.780;2023-04-03T07:49:47;2.00;;;1.80;;
29242;SDS011;21110;48.036;15.780;2023-04-03T07:52:13;2.47;;;1.83;;
29242;SDS011;21110;48.036;15.780;2023-04-03T07:54:40;2.00;;;1.90;;
29242;SDS011;21110;48.036;15.780;2023-04-03T07:57:06;1.95;;;1.85;;
29242;SDS011;21110;48.036;15.780;2023-04-03T07:59:32;2.00;;;1.90;;
29242;SDS011;21110;48.036;15.780;2023-04-03T08:01:57;1.92;;;1.83;;
29242;SDS011;21110;48.036;15.780;2023-04-03T08:04:23;3.08;;;1.88;;
29242;SDS011;21110;48.036;15.780;2023-04-03T08:06:50;1.95;;;1.85;;
29242;SDS011;21110;48.036;15.780;2023-04-03T08:09:16;2.42;;;2.00;;
29242;SDS011;21110;48.036;15.780;2023-04-03T08:11:41;2.35;;;2.15;;
29242;SDS011;21110;48.036;15.780;2023-04-03T08:14:07;1.98;;;1.88;;
29242;SDS011;21110;48.036;15.780;2023-04-03T08:16:35;1.90;;;1.80;;
29242;SDS011;21110;48.036;15.780;2023-04-03T08:19:01;1.90;;;1.80;;
29242;SDS011;21110;48.036;15.780;2023-04-03T08:21:27;2.10;;;2.00;;
29242;SDS011;21110;48.036;15.780;2023-04-03T08:23:52;1.92;;;1.83;;
29242;SDS011;21110;48.036;15.780;2023-04-03T08:26:19;2.00;;;1.90;;
29242;SDS011;21110;48.036;15.780;2023-04-03T08:28:46;2.30;;;2.10;;
29242;SDS011;21110;48.036;15.780;2023-04-03T08:31:15;1.80;;;1.70;;
29242;SDS011;21110;48.036;15.780;2023-04-03T08:33:43;3.58;;;1.80;;
29242;SDS011;21110;48.036;15.780;2023-04-03T08:39:01;2.03;;;1.90;;
29242;SDS011;21110;48.036;15.780;2023-04-03T08:41:34;2.72;;;1.98;;
29242;SDS011;21110;48.036;15.780;2023-04-03T08:44:14;1.80;;;1.70;;
29242;SDS011;21110;48.036;15.780;2023-04-03T08:49:52;2.10;;;1.90;;
29242;SDS011;21110;48.036;15.780;2023-04-03T08:55:20;2.05;;;1.88;;
29242;SDS011;21110;48.036;15.780;2023-04-03T08:57:50;1.80;;;1.70;;
29242;SDS011;21110;48.036;15.780;2023-04-03T09:00:34;1.80;;;1.70;;
29242;SDS011;21110;48.036;15.780;2023-04-03T09:03:11;1.70;;;1.60;;
29242;SDS011;21110;48.036;15.780;2023-04-03T09:13:59;1.80;;;1.70;;
29242;SDS011;21110;48.036;15.780;2023-04-03T09:16:56;1.85;;;1.75;;
29242;SDS011;21110;48.036;15.780;2023-04-03T09:22:13;1.80;;;1.70;;
29242;SDS011;21110;48.036;15.780;2023-04-03T09:27:45;1.98;;;1.80;;
29242;SDS011;21110;48.036;15.780;2023-04-03T09:30:14;2.03;;;1.90;;
29242;SDS011;21110;48.036;15.780;2023-04-03T09:32:43;1.77;;;1.67;;
29242;SDS011;21110;48.036;15.780;2023-04-03T09:35:16;1.60;;;1.50;;
29242;SDS011;21110;48.036;15.780;2023-04-03T09:37:49;1.80;;;1.70;;
29242;SDS011;21110;48.036;15.780;2023-04-03T09:42:56;1.75;;;1.65;;
29242;SDS011;21110;48.036;15.780;2023-04-03T09:45:28;1.88;;;1.77;;
29242;SDS011;21110;48.036;15.780;2023-04-03T09:48:15;1.70;;;1.60;;
29242;SDS011;21110;48.036;15.780;2023-04-03T09:53:43;1.77;;;1.67;;
29242;SDS011;21110;48.036;15.780;2023-04-03T09:58:42;1.65;;;1.55;;
29242;SDS011;21110;48.036;15.780;2023-04-03T10:01:32;1.42;;;1.40;;
29242;SDS011;21110;48.036;15.780;2023-04-03T10:06:33;1.73;;;1.63;;
29242;SDS011;21110;48.036;15.780;2023-04-03T10:09:02;1.50;;;1.50;;
29242;SDS011;21110;48.036;15.780;2023-04-03T10:11:30;1.75;;;1.65;;
29242;SDS011;21110;48.036;15.780;2023-04-03T10:14:00;2.47;;;1.70;;
29242;SDS011;21110;48.036;15.780;2023-04-03T10:16:46;1.77;;;1.67;;
29242;SDS011;21110;48.036;15.780;2023-04-03T10:21:57;1.77;;;1.67;;
29242;SDS011;21110;48.036;15.780;2023-04-03T10:24:30;1.55;;;1.55;;
29242;SDS011;21110;48.036;15.780;2023-04-03T10:27:01;1.60;;;1.50;;
29242;SDS011;21110;48.036;15.780;2023-04-03T10:34:45;1.73;;;1.63;;
29242;SDS011;21110;48.036;15.780;2023-04-03T10:37:22;1.70;;;1.60;;
29242;SDS011;21110;48.036;15.780;2023-04-03T10:45:29;1.55;;;1.52;;
29242;SDS011;21110;48.036;15.780;2023-04-03T10:48:17;1.40;;;1.40;;
29242;SDS011;21110;48.036;15.780;2023-04-03T10:56:34;1.80;;;1.70;;
29242;SDS011;21110;48.036;15.780;2023-04-03T10:59:18;1.75;;;1.65;;
29242;SDS011;21110;48.036;15.780;2023-04-03T11:01:48;1.70;;;1.60;;
29242;SDS011;21110;48.036;15.780;2023-04-03T11:04:17;1.70;;;1.60;;
29242;SDS011;21110;48.036;15.780;2023-04-03T11:06:58;1.80;;;1.70;;
29242;SDS011;21110;48.036;15.780;2023-04-03T11:09:34;1.58;;;1.48;;
29242;SDS011;21110;48.036;15.780;2023-04-03T11:12:06;1.70;;;1.60;;
29242;SDS011;21110;48.036;15.780;2023-04-03T11:14:37;1.70;;;1.60;;
29242;SDS011;21110;48.036;15.780;2023-04-03T11:22:16;1.58;;;1.48;;
29242;SDS011;21110;48.036;15.780;2023-04-03T11:27:37;1.60;;;1.50;;
29242;SDS011;21110;48.036;15.780;2023-04-03T11:30:18;1.50;;;1.40;;
29242;SDS011;21110;48.036;15.780;2023-04-03T11:33:04;1.65;;;1.60;;
29242;SDS011;21110;48.036;15.780;2023-04-03T11:35:31;1.60;;;1.50;;
29242;SDS011;21110;48.036;15.780;2023-04-03T11:37:58;1.20;;;1.20;;
29242;SDS011;21110;48.036;15.780;2023-04-03T11:40:28;1.50;;;1.50;;
29242;SDS011;21110;48.036;15.780;2023-04-03T11:46:00;1.60;;;1.50;;
29242;SDS011;21110;48.036;15.780;2023-04-03T11:53:46;1.60;;;1.60;;
29242;SDS011;21110;48.036;15.780;2023-04-03T12:02:14;1.73;;;1.63;;
29242;SDS011;21110;48.036;15.780;2023-04-03T12:05:34;1.48;;;1.38;;
29242;SDS011;21110;48.036;15.780;2023-04-03T12:08:15;1.50;;;1.50;;
29242;SDS011;21110;48.036;15.780;2023-04-03T12:26:38;1.65;;;1.55;;
29242;SDS011;21110;48.036;15.780;2023-04-03T12:29:17;1.60;;;1.50;;
29242;SDS011;21110;48.036;15.780;2023-04-03T12:45:46;1.65;;;1.55;;
29242;SDS011;21110;48.036;15.780;2023-04-03T12:48:29;1.55;;;1.45;;
29242;SDS011;21110;48.036;15.780;2023-04-03T12:50:57;1.52;;;1.42;;
29242;SDS011;21110;48.036;15.780;2023-04-03T12:53:27;1.30;;;1.30;;
29242;SDS011;21110;48.036;15.780;2023-04-03T12:56:18;1.80;;;1.70;;
29242;SDS011;21110;48.036;15.780;2023-04-03T12:58:43;1.27;;;1.27;;
29242;SDS011;21110;48.036;15.780;2023-04-03T13:01:10;1.30;;;1.30;;
29242;SDS011;21110;48.036;15.780;2023-04-03T13:03:39;1.40;;;1.40;;
29242;SDS011;21110;48.036;15.780;2023-04-03T13:06:10;1.50;;;1.50;;
29242;SDS011;21110;48.036;15.780;2023-04-03T13:08:53;1.30;;;1.30;;
29242;SDS011;21110;48.036;15.780;2023-04-03T13:11:22;1.40;;;1.30;;
29242;SDS011;21110;48.036;15.780;2023-04-03T13:13:56;1.60;;;1.50;;
29242;SDS011;21110;48.036;15.780;2023-04-03T13:16:28;1.40;;;1.40;;
29242;SDS011;21110;48.036;15.780;2023-04-03T13:18:55;11.07;;;1.85;;
29242;SDS011;21110;48.036;15.780;2023-04-03T13:21:22;17.83;;;2.00;;
29242;SDS011;21110;48.036;15.780;2023-04-03T13:23:52;7.95;;;1.85;;
29242;SDS011;21110;48.036;15.780;2023-04-03T13:26:21;5.78;;;1.70;;
29242;SDS011;21110;48.036;15.780;2023-04-03T13:28:49;9.73;;;1.60;;
29242;SDS011;21110;48.036;15.780;2023-04-03T13:34:10;6.68;;;1.75;;
29242;SDS011;21110;48.036;15.780;2023-04-03T13:36:37;2.97;;;1.50;;
29242;SDS011;21110;48.036;15.780;2023-04-03T13:41:41;6.95;;;1.70;;
29242;SDS011;21110;48.036;15.780;2023-04-03T13:44:16;4.72;;;1.67;;
29242;SDS011;21110;48.036;15.780;2023-04-03T13:46:48;3.13;;;1.75;;
29242;SDS011;21110;48.036;15.780;2023-04-03T13:54:55;2.92;;;1.75;;
29242;SDS011;21110;48.036;15.780;2023-04-03T13:57:26;1.80;;;1.40;;
29242;SDS011;21110;48.036;15.780;2023-04-03T13:59:53;2.72;;;1.60;;
29242;SDS011;21110;48.036;15.780;2023-04-03T14:02:39;2.55;;;1.60;;
29242;SDS011;21110;48.036;15.780;2023-04-03T14:05:05;5.28;;;1.70;;
29242;SDS011;21110;48.036;15.780;2023-04-03T14:07:33;2.83;;;1.70;;
29242;SDS011;21110;48.036;15.780;2023-04-03T14:09:59;3.75;;;1.80;;
29242;SDS011;21110;48.036;15.780;2023-04-03T14:12:32;5.20;;;1.80;;
29242;SDS011;21110;48.036;15.780;2023-04-03T14:15:10;3.90;;;1.70;;
29242;SDS011;21110;48.036;15.780;2023-04-03T14:17:48;2.80;;;1.70;;
29242;SDS011;21110;48.036;15.780;2023-04-03T14:20:16;3.95;;;1.73;;
29242;SDS011;21110;48.036;15.780;2023-04-03T14:22:45;3.08;;;1.73;;
29242;SDS011;21110;48.036;15.780;2023-04-03T14:25:11;2.30;;;1.60;;
29242;SDS011;21110;48.036;15.780;2023-04-03T14:27:41;2.65;;;1.60;;
29242;SDS011;21110;48.036;15.780;2023-04-03T14:30:12;2.45;;;1.77;;
29242;SDS011;21110;48.036;15.780;2023-04-03T14:32:44;2.78;;;1.95;;
29242;SDS011;21110;48.036;15.780;2023-04-03T14:35:11;2.50;;;1.55;;
29242;SDS011;21110;48.036;15.780;2023-04-03T14:37:37;2.97;;;1.70;;
29242;SDS011;21110;48.036;15.780;2023-04-03T14:40:04;2.35;;;1.75;;
29242;SDS011;21110;48.036;15.780;2023-04-03T14:42:34;3.65;;;1.55;;
29242;SDS011;21110;48.036;15.780;2023-04-03T14:45:01;2.13;;;1.70;;
29242;SDS011;21110;48.036;15.780;2023-04-03T14:47:29;2.38;;;1.65;;
29242;SDS011;21110;48.036;15.780;2023-04-03T14:49:55;1.80;;;1.70;;
29242;SDS011;21110;48.036;15.780;2023-04-03T14:52:23;4.55;;;1.70;;
29242;SDS011;21110;48.036;15.780;2023-04-03T14:54:51;1.65;;;1.55;;
29242;SDS011;21110;48.036;15.780;2023-04-03T14:57:18;2.72;;;1.70;;
29242;SDS011;21110;48.036;15.780;2023-04-03T14:59:53;2.90;;;1.63;;
29242;SDS011;21110;48.036;15.780;2023-04-03T15:02:35;3.13;;;1.73;;
29242;SDS011;21110;48.036;15.780;2023-04-03T15:05:06;1.70;;;1.60;;
29242;SDS011;21110;48.036;15.780;2023-04-03T15:07:35;1.73;;;1.60;;
29242;SDS011;21110;48.036;15.780;2023-04-03T15:10:09;1.70;;;1.60;;
29242;SDS011;21110;48.036;15.780;2023-04-03T15:12:43;2.45;;;1.75;;
29242;SDS011;21110;48.036;15.780;2023-04-03T15:15:10;2.58;;;1.70;;
29242;SDS011;21110;48.036;15.780;2023-04-03T15:17:36;2.63;;;1.75;;
29242;SDS011;21110;48.036;15.780;2023-04-03T15:20:02;1.98;;;1.67;;
29242;SDS011;21110;48.036;15.780;2023-04-03T15:22:35;1.77;;;1.45;;
29242;SDS011;21110;48.036;15.780;2023-04-03T15:25:01;2.95;;;1.60;;
29242;SDS011;21110;48.036;15.780;2023-04-03T15:27:28;1.70;;;1.60;;
29242;SDS011;21110;48.036;15.780;2023-04-03T15:29:53;4.20;;;1.58;;
29242;SDS011;21110;48.036;15.780;2023-04-03T15:32:19;2.78;;;1.55;;
29242;SDS011;21110;48.036;15.780;2023-04-03T15:34:45;1.92;;;1.70;;
29242;SDS011;21110;48.036;15.780;2023-04-03T15:37:11;1.70;;;1.60;;
29242;SDS011;21110;48.036;15.780;2023-04-03T15:39:36;2.65;;;1.50;;
29242;SDS011;21110;48.036;15.780;2023-04-03T15:42:02;1.65;;;1.55;;
29242;SDS011;21110;48.036;15.780;2023-04-03T15:44:31;3.85;;;1.60;;
29242;SDS011;21110;48.036;15.780;2023-04-03T15:46:58;1.60;;;1.50;;
29242;SDS011;21110;48.036;15.780;2023-04-03T15:49:25;2.15;;;1.60;;
29242;SDS011;21110;48.036;15.780;2023-04-03T15:51:51;1.58;;;1.48;;
29242;SDS011;21110;48.036;15.780;2023-04-03T15:54:17;3.42;;;2.10;;
29242;SDS011;21110;48.036;15.780;2023-04-03T15:56:43;3.40;;;2.30;;
29242;SDS011;21110;48.036;15.780;2023-04-03T15:59:09;7.75;;;2.30;;
29242;SDS011;21110;48.036;15.780;2023-04-03T16:01:35;7.07;;;2.40;;
29242;SDS011;21110;48.036;15.780;2023-04-03T16:04:02;7.95;;;2.58;;
29242;SDS011;21110;48.036;15.780;2023-04-03T16:06:28;9.90;;;2.63;;
29242;SDS011;21110;48.036;15.780;2023-04-03T16:08:58;4.65;;;2.28;;
29242;SDS011;21110;48.036;15.780;2023-04-03T16:11:24;5.82;;;2.40;;
29242;SDS011;21110;48.036;15.780;2023-04-03T16:13:51;15.60;;;2.60;;
29242;SDS011;21110;48.036;15.780;2023-04-03T16:16:16;9.65;;;2.65;;
29242;SDS011;21110;48.036;15.780;2023-04-03T16:18:42;15.05;;;3.20;;
29242;SDS011;21110;48.036;15.780;2023-04-03T16:21:08;9.63;;;2.80;;
29242;SDS011;21110;48.036;15.780;2023-04-03T16:23:34;10.82;;;2.67;;
29242;SDS011;21110;48.036;15.780;2023-04-03T16:26:00;11.75;;;2.58;;
29242;SDS011;21110;48.036;15.780;2023-04-03T16:28:26;6.72;;;2.60;;
29242;SDS011;21110;48.036;15.780;2023-04-03T16:30:51;10.82;;;2.70;;
29242;SDS011;21110;48.036;15.780;2023-04-03T16:33:17;16.65;;;2.80;;
29242;SDS011;21110;48.036;15.780;2023-04-03T16:35:46;9.50;;;2.88;;
29242;SDS011;21110;48.036;15.780;2023-04-03T16:38:13;10.93;;;2.50;;
29242;SDS011;21110;48.036;15.780;2023-04-03T16:40:39;12.93;;;2.85;;